createdAt,value
2023-02-22T00:04:49.856Z,7.29
2023-02-22T00:09:51.173Z,7.28
2023-02-22T00:14:52.554Z,7.24
2023-02-22T00:19:54.180Z,7.17
2023-02-22T00:24:57.189Z,7.17
2023-02-22T00:29:58.799Z,7.14
2023-02-22T00:35:00.147Z,7.03
2023-02-22T00:40:01.734Z,7.05
2023-02-22T00:45:05.170Z,7.07
2023-02-22T00:50:06.754Z,6.98
2023-02-22T00:55:10.298Z,6.88
2023-02-22T01:00:19.913Z,6.90
2023-02-22T01:05:23.869Z,6.87
2023-02-22T01:10:28.513Z,6.80
2023-02-22T01:15:30.672Z,6.81
2023-02-22T01:20:32.828Z,6.85
2023-02-22T01:25:35.079Z,6.82
2023-02-22T01:30:37.115Z,6.75
2023-02-22T01:35:40.966Z,6.71
2023-02-22T01:40:43.979Z,6.66
2023-02-22T01:45:57.857Z,6.52
2023-02-22T01:51:11.356Z,6.45
2023-02-22T01:56:13.770Z,6.48
2023-02-22T02:01:18.412Z,6.45
2023-02-22T02:06:20.547Z,6.46
2023-02-22T02:11:25.527Z,6.38
2023-02-22T02:16:36.957Z,6.35
2023-02-22T02:21:56.867Z,6.18
2023-02-22T02:27:18.895Z,6.11
2023-02-22T02:32:44.671Z,6.11
2023-02-22T02:38:12.648Z,6.07
2023-02-22T02:43:29.346Z,6.10
2023-02-22T02:48:34.145Z,6.07
2023-02-22T02:53:39.233Z,5.99
2023-02-22T02:58:49.575Z,5.84
2023-02-22T03:04:15.201Z,5.89
2023-02-22T03:09:44.005Z,5.90
2023-02-22T03:15:05.208Z,5.92
2023-02-22T03:20:21.634Z,5.92
2023-02-22T03:25:33.806Z,5.80
2023-02-22T03:30:39.354Z,5.85
2023-02-22T03:35:48.122Z,5.93
2023-02-22T03:40:54.301Z,5.99
2023-02-22T03:45:56.801Z,6.05
2023-02-22T03:50:58.484Z,6.08
2023-02-22T03:56:01.968Z,6.07
2023-02-22T04:01:03.886Z,6.13
2023-02-22T04:06:05.621Z,6.11
2023-02-22T04:11:06.982Z,6.08
2023-02-22T04:16:08.401Z,5.99
2023-02-22T04:21:09.738Z,5.89
2023-02-22T04:26:11.128Z,5.89
2023-02-22T04:31:12.456Z,5.85
2023-02-22T04:36:15.901Z,5.78
2023-02-22T04:41:18.906Z,5.63
2023-02-22T04:46:20.429Z,5.47
2023-02-22T04:51:21.776Z,5.53
2023-02-22T04:56:23.400Z,5.47
2023-02-22T05:01:24.704Z,5.44
2023-02-22T05:06:26.017Z,5.34
2023-02-22T05:11:27.622Z,5.29
2023-02-22T05:16:28.988Z,5.33
2023-02-22T05:21:30.396Z,5.38
2023-02-22T05:26:31.712Z,5.32
2023-02-22T05:31:33.172Z,5.38
2023-02-22T05:36:34.918Z,5.43
2023-02-22T05:41:36.307Z,5.45
2023-02-22T05:46:37.650Z,5.43
2023-02-22T05:51:39.176Z,5.40
2023-02-22T05:56:40.658Z,5.43
2023-02-22T06:01:42.129Z,5.40
2023-02-22T06:06:43.583Z,5.32
2023-02-22T06:11:45.263Z,5.29
2023-02-22T06:16:52.879Z,5.28
2023-02-22T06:21:56.755Z,5.29
2023-02-22T06:27:01.081Z,5.40
2023-02-22T06:32:02.553Z,5.46
2023-02-22T06:37:03.946Z,5.52
2023-02-22T06:42:05.770Z,5.54
2023-02-22T06:47:07.235Z,5.61
2023-02-22T06:52:09.672Z,5.61
2023-02-22T06:57:11.244Z,5.70
2023-02-22T07:02:13.265Z,5.76
2023-02-22T07:07:14.569Z,5.75
2023-02-22T07:12:16.037Z,5.90
2023-02-22T07:17:17.425Z,5.89
2023-02-22T07:27:36.772Z,6.05
2023-02-22T07:32:38.583Z,6.05
2023-02-22T07:37:40.351Z,6.06
2023-02-22T07:42:59.929Z,6.09
2023-02-22T07:48:04.338Z,6.27
2023-02-22T07:53:11.676Z,6.41
2023-02-22T07:58:32.640Z,6.41
2023-02-22T08:03:36.668Z,6.54
2023-02-22T08:08:38.504Z,6.66
2023-02-22T08:13:47.899Z,6.78
2023-02-22T08:18:51.082Z,6.91
2023-02-22T08:23:54.415Z,7.08
2023-02-22T08:28:57.292Z,7.10
2023-02-22T08:34:01.086Z,7.12
2023-02-22T08:39:02.690Z,7.22
2023-02-22T08:44:09.993Z,7.40
2023-02-22T08:54:27.926Z,7.57
2023-02-22T08:59:29.314Z,7.75
2023-02-22T09:04:30.651Z,7.77
2023-02-22T09:09:31.991Z,7.99
2023-02-22T09:14:33.957Z,8.26
2023-02-22T09:19:35.263Z,8.40
2023-02-22T09:24:36.706Z,8.62
2023-02-22T09:29:39.318Z,8.71
2023-02-22T09:34:45.739Z,8.86
2023-02-22T09:39:47.116Z,9.04
2023-02-22T09:55:57.630Z,9.24
2023-02-22T10:01:42.637Z,9.59
2023-02-22T10:07:01.381Z,9.93
2023-02-22T10:12:12.977Z,10.26
2023-02-22T10:17:34.061Z,10.39
2023-02-22T10:22:50.453Z,10.69
2023-02-22T10:28:01.300Z,10.91
2023-02-22T10:33:15.924Z,11.11
2023-02-22T10:38:20.884Z,11.05
2023-02-22T10:48:51.212Z,11.24
2023-02-22T11:04:30.114Z,11.18
2023-02-22T11:09:50.582Z,11.45
2023-02-22T11:14:51.939Z,11.76
2023-02-22T11:19:53.417Z,11.93
2023-02-22T11:25:07.378Z,12.01
2023-02-22T11:30:25.506Z,12.21
2023-02-22T11:35:35.294Z,12.24
2023-02-22T11:40:36.668Z,12.32
2023-02-22T11:45:44.212Z,12.52
2023-02-22T11:51:06.352Z,12.65
2023-02-22T11:56:17.322Z,12.72
2023-02-22T12:01:59.943Z,12.89
2023-02-22T12:07:10.609Z,13.34
2023-02-22T12:23:20.617Z,14.16
2023-02-22T12:55:11.959Z,14.81
2023-02-22T13:00:23.157Z,14.82
2023-02-22T13:05:24.685Z,14.99
2023-02-22T13:10:36.915Z,15.11
2023-02-22T13:16:00.243Z,15.49
2023-02-22T15:33:24.069Z,15.25
2023-02-22T15:38:30.309Z,15.13
2023-02-22T15:43:32.594Z,14.99
2023-02-22T15:48:35.616Z,14.95
2023-02-22T15:53:46.015Z,14.86
2023-02-22T15:58:48.242Z,14.76
2023-02-22T16:04:20.157Z,14.64
2023-02-22T16:09:29.411Z,14.70
2023-02-22T16:14:37.544Z,14.61
2023-02-22T16:19:42.755Z,14.44
2023-02-22T16:24:44.574Z,14.33
2023-02-22T16:30:25.695Z,14.23
2023-02-22T16:35:29.140Z,14.28
2023-02-22T17:01:35.134Z,13.86
2023-02-22T17:06:36.770Z,13.78
2023-02-22T17:11:38.763Z,13.58
2023-02-22T17:16:40.197Z,13.44
2023-02-22T17:21:41.589Z,13.40
2023-02-22T17:26:43.061Z,13.39
2023-02-22T17:31:44.964Z,13.40
2023-02-22T17:36:46.496Z,13.29
2023-02-22T17:41:54.942Z,13.25
2023-02-22T17:46:56.329Z,13.28
2023-02-22T17:51:57.997Z,13.23
2023-02-22T17:57:00.320Z,13.32
2023-02-22T18:02:03.096Z,13.28
2023-02-22T18:07:04.613Z,13.21
2023-02-22T18:12:06.017Z,13.13
2023-02-22T18:17:07.866Z,13.05
2023-02-22T18:22:09.188Z,12.97
2023-02-22T18:27:11.808Z,12.88
2023-02-22T18:32:13.662Z,12.81
2023-02-22T18:37:20.320Z,12.74
2023-02-22T18:42:30.843Z,12.65
2023-02-22T18:47:38.235Z,12.56
2023-02-22T18:52:46.022Z,12.50
2023-02-22T18:57:48.789Z,12.43
2023-02-22T19:02:50.540Z,12.39
2023-02-22T19:07:51.970Z,12.34
2023-02-22T19:12:53.315Z,12.28
2023-02-22T19:17:55.727Z,12.27
2023-02-22T19:22:57.130Z,12.23
2023-02-22T19:27:58.461Z,12.18
2023-02-22T19:33:02.480Z,12.09
2023-02-22T19:38:04.160Z,12.06
2023-02-22T19:43:05.497Z,12.00
2023-02-22T19:48:06.972Z,11.91
2023-02-22T19:53:13.882Z,11.82
2023-02-22T19:58:15.350Z,11.71
2023-02-22T20:03:23.338Z,11.62
2023-02-22T20:08:26.191Z,11.56
2023-02-22T20:13:27.890Z,11.48
2023-02-22T20:18:30.149Z,11.45
2023-02-22T20:23:31.539Z,11.42
2023-02-22T20:28:34.059Z,11.40
2023-02-22T20:33:35.431Z,11.36
2023-02-22T20:38:37.813Z,11.28
2023-02-22T20:43:39.723Z,11.24
2023-02-22T20:48:41.144Z,11.16
2023-02-22T20:53:44.798Z,11.13
2023-02-22T20:58:46.753Z,11.09
2023-02-22T21:03:48.698Z,11.00
2023-02-22T21:08:56.932Z,10.91
2023-02-22T21:13:59.870Z,10.84
2023-02-22T21:19:04.106Z,10.83
2023-02-22T21:24:05.821Z,10.82
2023-02-22T21:29:07.226Z,10.78
2023-02-22T21:34:12.864Z,10.77
2023-02-22T21:39:18.222Z,10.75
2023-02-22T21:44:20.606Z,10.74
2023-02-22T21:49:23.053Z,10.76
2023-02-22T21:54:24.490Z,10.75
2023-02-22T21:59:25.923Z,10.77
2023-02-22T22:04:31.832Z,10.80
2023-02-22T22:09:35.325Z,10.81
2023-02-22T22:14:37.827Z,10.83
2023-02-22T22:19:39.575Z,10.85
2023-02-22T22:24:45.857Z,10.73
2023-02-22T22:29:47.235Z,10.67
2023-02-22T22:34:49.263Z,10.65
2023-02-22T22:39:50.594Z,10.73
2023-02-22T22:44:51.955Z,10.80
2023-02-22T22:49:59.509Z,10.89
2023-02-22T22:55:01.322Z,10.94
2023-02-22T23:00:22.659Z,10.98
2023-02-22T23:05:28.618Z,11.02
2023-02-22T23:10:31.834Z,11.05
2023-02-22T23:15:33.154Z,11.11
2023-02-22T23:20:38.789Z,11.16
2023-02-22T23:25:41.589Z,11.20
2023-02-22T23:30:43.795Z,11.24
2023-02-22T23:35:48.644Z,11.26
2023-02-22T23:40:53.849Z,11.29
2023-02-22T23:45:57.099Z,11.37
2023-02-22T23:51:01.029Z,11.39
2023-02-22T23:56:02.339Z,11.46
